sensor_id;sensor_type;location;lat;lon;timestamp;P1;durP1;ratioP1;P2;durP2;ratioP2
20609;SDS011;10463;52.378;9.688;2022-09-12T00:01:48;5.63;;;5.00;;
20609;SDS011;10463;52.378;9.688;2022-09-12T00:04:32;6.60;;;5.93;;
20609;SDS011;10463;52.378;9.688;2022-09-12T00:07:17;6.60;;;5.90;;
20609;SDS011;10463;52.378;9.688;2022-09-12T00:10:02;7.60;;;6.80;;
20609;SDS011;10463;52.378;9.688;2022-09-12T00:12:47;8.00;;;6.53;;
20609;SDS011;10463;52.378;9.688;2022-09-12T00:15:37;6.93;;;6.30;;
20609;SDS011;10463;52.378;9.688;2022-09-12T00:18:25;6.60;;;6.00;;
20609;SDS011;10463;52.378;9.688;2022-09-12T00:21:10;9.40;;;7.43;;
20609;SDS011;10463;52.378;9.688;2022-09-12T00:23:55;6.80;;;5.83;;
20609;SDS011;10463;52.378;9.688;2022-09-12T00:26:39;8.47;;;6.50;;
20609;SDS011;10463;52.378;9.688;2022-09-12T00:29:24;6.67;;;5.97;;
20609;SDS011;10463;52.378;9.688;2022-09-12T00:32:09;5.90;;;5.33;;
20609;SDS011;10463;52.378;9.688;2022-09-12T00:34:55;7.10;;;6.40;;
20609;SDS011;10463;52.378;9.688;2022-09-12T00:37:40;6.13;;;5.53;;
20609;SDS011;10463;52.378;9.688;2022-09-12T00:40:25;7.00;;;5.60;;
20609;SDS011;10463;52.378;9.688;2022-09-12T00:43:12;8.90;;;5.73;;
20609;SDS011;10463;52.378;9.688;2022-09-12T00:46:00;5.90;;;5.37;;
20609;SDS011;10463;52.378;9.688;2022-09-12T00:48:49;6.83;;;5.63;;
20609;SDS011;10463;52.378;9.688;2022-09-12T00:51:41;5.70;;;5.10;;
20609;SDS011;10463;52.378;9.688;2022-09-12T00:54:31;5.27;;;4.30;;
20609;SDS011;10463;52.378;9.688;2022-09-12T00:57:20;5.57;;;5.07;;
20609;SDS011;10463;52.378;9.688;2022-09-12T01:00:10;6.63;;;5.00;;
20609;SDS011;10463;52.378;9.688;2022-09-12T01:03:00;7.10;;;6.03;;
20609;SDS011;10463;52.378;9.688;2022-09-12T01:05:51;6.90;;;5.40;;
20609;SDS011;10463;52.378;9.688;2022-09-12T01:08:43;6.23;;;5.27;;
20609;SDS011;10463;52.378;9.688;2022-09-12T01:11:31;5.70;;;5.20;;
20609;SDS011;10463;52.378;9.688;2022-09-12T01:14:19;5.70;;;5.10;;
20609;SDS011;10463;52.378;9.688;2022-09-12T01:17:04;7.33;;;5.47;;
20609;SDS011;10463;52.378;9.688;2022-09-12T01:20:20;6.50;;;5.00;;
20609;SDS011;10463;52.378;9.688;2022-09-12T01:27:26;5.97;;;5.33;;
20609;SDS011;10463;52.378;9.688;2022-09-12T01:30:44;5.90;;;5.10;;
20609;SDS011;10463;52.378;9.688;2022-09-12T01:33:53;6.07;;;5.20;;
20609;SDS011;10463;52.378;9.688;2022-09-12T01:36:51;6.67;;;5.40;;
20609;SDS011;10463;52.378;9.688;2022-09-12T01:39:47;6.50;;;5.20;;
20609;SDS011;10463;52.378;9.688;2022-09-12T01:42:40;6.07;;;5.33;;
20609;SDS011;10463;52.378;9.688;2022-09-12T01:45:38;6.03;;;5.10;;
20609;SDS011;10463;52.378;9.688;2022-09-12T01:48:31;5.53;;;4.40;;
20609;SDS011;10463;52.378;9.688;2022-09-12T01:51:22;5.40;;;4.53;;
20609;SDS011;10463;52.378;9.688;2022-09-12T01:54:13;7.40;;;3.97;;
20609;SDS011;10463;52.378;9.688;2022-09-12T01:57:07;5.53;;;4.30;;
20609;SDS011;10463;52.378;9.688;2022-09-12T02:00:04;4.60;;;4.13;;
20609;SDS011;10463;52.378;9.688;2022-09-12T02:02:59;4.40;;;4.00;;
20609;SDS011;10463;52.378;9.688;2022-09-12T02:05:54;4.93;;;4.43;;
20609;SDS011;10463;52.378;9.688;2022-09-12T02:08:44;4.00;;;3.60;;
20609;SDS011;10463;52.378;9.688;2022-09-12T02:11:33;4.97;;;4.50;;
20609;SDS011;10463;52.378;9.688;2022-09-12T02:14:22;4.53;;;4.13;;
20609;SDS011;10463;52.378;9.688;2022-09-12T02:17:13;5.53;;;4.90;;
20609;SDS011;10463;52.378;9.688;2022-09-12T02:20:06;5.97;;;5.10;;
20609;SDS011;10463;52.378;9.688;2022-09-12T02:22:55;6.50;;;4.80;;
20609;SDS011;10463;52.378;9.688;2022-09-12T02:25:44;4.67;;;4.27;;
20609;SDS011;10463;52.378;9.688;2022-09-12T02:28:33;4.13;;;3.73;;
20609;SDS011;10463;52.378;9.688;2022-09-12T02:31:23;4.10;;;3.70;;
20609;SDS011;10463;52.378;9.688;2022-09-12T02:34:25;4.30;;;3.90;;
20609;SDS011;10463;52.378;9.688;2022-09-12T02:37:20;4.50;;;4.10;;
20609;SDS011;10463;52.378;9.688;2022-09-12T02:40:09;4.17;;;3.47;;
20609;SDS011;10463;52.378;9.688;2022-09-12T02:42:54;4.77;;;4.27;;
20609;SDS011;10463;52.378;9.688;2022-09-12T02:45:39;4.40;;;3.93;;
20609;SDS011;10463;52.378;9.688;2022-09-12T02:48:26;5.13;;;4.17;;
20609;SDS011;10463;52.378;9.688;2022-09-12T02:51:14;6.13;;;5.53;;
20609;SDS011;10463;52.378;9.688;2022-09-12T02:54:01;6.80;;;5.40;;
20609;SDS011;10463;52.378;9.688;2022-09-12T02:56:49;5.90;;;5.03;;
20609;SDS011;10463;52.378;9.688;2022-09-12T02:59:34;5.73;;;5.23;;
20609;SDS011;10463;52.378;9.688;2022-09-12T03:02:25;6.70;;;6.10;;
20609;SDS011;10463;52.378;9.688;2022-09-12T03:05:19;5.93;;;5.40;;
20609;SDS011;10463;52.378;9.688;2022-09-12T03:08:15;8.50;;;6.53;;
20609;SDS011;10463;52.378;9.688;2022-09-12T03:11:50;7.73;;;6.93;;
20609;SDS011;10463;52.378;9.688;2022-09-12T03:14:54;5.90;;;5.33;;
20609;SDS011;10463;52.378;9.688;2022-09-12T03:18:17;6.10;;;5.40;;
20609;SDS011;10463;52.378;9.688;2022-09-12T03:21:10;6.40;;;5.77;;
20609;SDS011;10463;52.378;9.688;2022-09-12T03:24:08;6.63;;;5.33;;
20609;SDS011;10463;52.378;9.688;2022-09-12T03:27:01;5.90;;;5.30;;
20609;SDS011;10463;52.378;9.688;2022-09-12T03:29:52;7.53;;;5.87;;
20609;SDS011;10463;52.378;9.688;2022-09-12T03:32:39;8.93;;;5.23;;
20609;SDS011;10463;52.378;9.688;2022-09-12T03:35:28;8.20;;;5.50;;
20609;SDS011;10463;52.378;9.688;2022-09-12T03:38:13;6.70;;;5.23;;
20609;SDS011;10463;52.378;9.688;2022-09-12T03:40:59;7.30;;;5.30;;
20609;SDS011;10463;52.378;9.688;2022-09-12T03:43:46;7.87;;;4.73;;
20609;SDS011;10463;52.378;9.688;2022-09-12T03:46:30;6.23;;;5.07;;
20609;SDS011;10463;52.378;9.688;2022-09-12T03:49:15;8.13;;;5.10;;
20609;SDS011;10463;52.378;9.688;2022-09-12T03:52:01;6.73;;;5.57;;
20609;SDS011;10463;52.378;9.688;2022-09-12T03:54:45;8.50;;;5.50;;
20609;SDS011;10463;52.378;9.688;2022-09-12T03:57:30;5.73;;;5.13;;
20609;SDS011;10463;52.378;9.688;2022-09-12T04:00:16;7.93;;;4.97;;
20609;SDS011;10463;52.378;9.688;2022-09-12T04:03:01;6.33;;;5.20;;
20609;SDS011;10463;52.378;9.688;2022-09-12T04:05:46;6.20;;;5.60;;
20609;SDS011;10463;52.378;9.688;2022-09-12T04:08:31;5.70;;;4.57;;
20609;SDS011;10463;52.378;9.688;2022-09-12T04:11:18;8.77;;;5.23;;
20609;SDS011;10463;52.378;9.688;2022-09-12T04:14:04;7.47;;;4.53;;
20609;SDS011;10463;52.378;9.688;2022-09-12T04:16:50;6.50;;;4.60;;
20609;SDS011;10463;52.378;9.688;2022-09-12T04:19:35;6.43;;;5.63;;
20609;SDS011;10463;52.378;9.688;2022-09-12T04:22:19;7.17;;;5.77;;
20609;SDS011;10463;52.378;9.688;2022-09-12T04:25:05;5.97;;;5.27;;
20609;SDS011;10463;52.378;9.688;2022-09-12T04:27:50;4.83;;;4.03;;
20609;SDS011;10463;52.378;9.688;2022-09-12T04:30:35;4.37;;;3.97;;
20609;SDS011;10463;52.378;9.688;2022-09-12T04:33:22;6.10;;;4.93;;
20609;SDS011;10463;52.378;9.688;2022-09-12T04:36:08;5.70;;;4.70;;
20609;SDS011;10463;52.378;9.688;2022-09-12T04:38:58;6.40;;;4.80;;
20609;SDS011;10463;52.378;9.688;2022-09-12T04:41:44;4.70;;;4.23;;
20609;SDS011;10463;52.378;9.688;2022-09-12T04:44:29;6.33;;;4.47;;
20609;SDS011;10463;52.378;9.688;2022-09-12T04:47:14;6.10;;;4.57;;
20609;SDS011;10463;52.378;9.688;2022-09-12T04:50:01;4.97;;;4.30;;
20609;SDS011;10463;52.378;9.688;2022-09-12T04:52:48;5.30;;;4.53;;
20609;SDS011;10463;52.378;9.688;2022-09-12T04:55:34;5.77;;;4.73;;
20609;SDS011;10463;52.378;9.688;2022-09-12T04:58:19;5.30;;;4.80;;
20609;SDS011;10463;52.378;9.688;2022-09-12T05:01:04;5.00;;;4.40;;
20609;SDS011;10463;52.378;9.688;2022-09-12T05:03:50;4.50;;;3.63;;
20609;SDS011;10463;52.378;9.688;2022-09-12T05:06:37;5.90;;;4.50;;
20609;SDS011;10463;52.378;9.688;2022-09-12T05:09:24;8.77;;;6.23;;
20609;SDS011;10463;52.378;9.688;2022-09-12T05:12:09;6.57;;;5.63;;
20609;SDS011;10463;52.378;9.688;2022-09-12T05:14:54;5.83;;;5.10;;
20609;SDS011;10463;52.378;9.688;2022-09-12T05:17:39;6.80;;;5.23;;
20609;SDS011;10463;52.378;9.688;2022-09-12T05:20:24;5.73;;;4.70;;
20609;SDS011;10463;52.378;9.688;2022-09-12T05:23:11;6.47;;;5.17;;
20609;SDS011;10463;52.378;9.688;2022-09-12T05:25:57;9.50;;;4.10;;
20609;SDS011;10463;52.378;9.688;2022-09-12T05:28:42;4.77;;;3.57;;
20609;SDS011;10463;52.378;9.688;2022-09-12T05:31:27;4.80;;;4.00;;
20609;SDS011;10463;52.378;9.688;2022-09-12T05:34:13;12.73;;;5.60;;
20609;SDS011;10463;52.378;9.688;2022-09-12T05:36:58;7.43;;;5.10;;
20609;SDS011;10463;52.378;9.688;2022-09-12T05:39:44;5.77;;;4.60;;
20609;SDS011;10463;52.378;9.688;2022-09-12T05:42:29;4.70;;;4.03;;
20609;SDS011;10463;52.378;9.688;2022-09-12T05:45:14;5.30;;;4.67;;
20609;SDS011;10463;52.378;9.688;2022-09-12T05:47:59;6.80;;;4.27;;
20609;SDS011;10463;52.378;9.688;2022-09-12T05:50:45;7.03;;;5.90;;
20609;SDS011;10463;52.378;9.688;2022-09-12T05:53:30;9.20;;;6.63;;
20609;SDS011;10463;52.378;9.688;2022-09-12T05:56:18;7.77;;;6.97;;
20609;SDS011;10463;52.378;9.688;2022-09-12T05:59:05;9.07;;;5.67;;
20609;SDS011;10463;52.378;9.688;2022-09-12T06:01:51;8.20;;;6.40;;
20609;SDS011;10463;52.378;9.688;2022-09-12T06:04:35;7.40;;;6.60;;
20609;SDS011;10463;52.378;9.688;2022-09-12T06:07:20;9.20;;;7.57;;
20609;SDS011;10463;52.378;9.688;2022-09-12T06:10:06;11.17;;;8.60;;
20609;SDS011;10463;52.378;9.688;2022-09-12T06:12:53;9.60;;;8.10;;
20609;SDS011;10463;52.378;9.688;2022-09-12T06:15:38;9.00;;;8.07;;
20609;SDS011;10463;52.378;9.688;2022-09-12T06:18:23;10.70;;;7.57;;
20609;SDS011;10463;52.378;9.688;2022-09-12T06:21:09;9.57;;;7.50;;
20609;SDS011;10463;52.378;9.688;2022-09-12T06:23:55;12.03;;;8.03;;
20609;SDS011;10463;52.378;9.688;2022-09-12T06:26:42;10.00;;;8.13;;
20609;SDS011;10463;52.378;9.688;2022-09-12T06:29:28;10.80;;;7.37;;
20609;SDS011;10463;52.378;9.688;2022-09-12T06:32:15;13.07;;;7.83;;
20609;SDS011;10463;52.378;9.688;2022-09-12T06:35:00;10.43;;;8.63;;
20609;SDS011;10463;52.378;9.688;2022-09-12T06:37:46;12.50;;;6.60;;
20609;SDS011;10463;52.378;9.688;2022-09-12T06:40:31;12.87;;;7.40;;
20609;SDS011;10463;52.378;9.688;2022-09-12T06:43:16;9.60;;;7.40;;
20609;SDS011;10463;52.378;9.688;2022-09-12T06:46:04;8.33;;;6.70;;
20609;SDS011;10463;52.378;9.688;2022-09-12T06:48:50;7.97;;;6.73;;
20609;SDS011;10463;52.378;9.688;2022-09-12T06:51:35;8.77;;;7.73;;
20609;SDS011;10463;52.378;9.688;2022-09-12T06:54:21;12.07;;;7.30;;
20609;SDS011;10463;52.378;9.688;2022-09-12T06:57:06;8.77;;;6.77;;
20609;SDS011;10463;52.378;9.688;2022-09-12T06:59:52;8.30;;;6.83;;
20609;SDS011;10463;52.378;9.688;2022-09-12T07:02:38;10.47;;;7.17;;
20609;SDS011;10463;52.378;9.688;2022-09-12T07:05:23;8.97;;;7.93;;
20609;SDS011;10463;52.378;9.688;2022-09-12T07:08:07;13.13;;;8.37;;
20609;SDS011;10463;52.378;9.688;2022-09-12T07:10:52;10.30;;;7.70;;
20609;SDS011;10463;52.378;9.688;2022-09-12T07:13:38;12.90;;;8.27;;
20609;SDS011;10463;52.378;9.688;2022-09-12T07:16:23;8.27;;;7.47;;
20609;SDS011;10463;52.378;9.688;2022-09-12T07:19:10;8.00;;;7.10;;
20609;SDS011;10463;52.378;9.688;2022-09-12T07:21:55;10.73;;;7.07;;
20609;SDS011;10463;52.378;9.688;2022-09-12T07:24:40;9.23;;;7.10;;
20609;SDS011;10463;52.378;9.688;2022-09-12T07:27:25;10.37;;;7.20;;
20609;SDS011;10463;52.378;9.688;2022-09-12T07:30:10;10.10;;;7.57;;
20609;SDS011;10463;52.378;9.688;2022-09-12T07:32:56;8.07;;;7.00;;
20609;SDS011;10463;52.378;9.688;2022-09-12T07:35:42;9.63;;;6.70;;
20609;SDS011;10463;52.378;9.688;2022-09-12T07:38:27;11.60;;;7.80;;
20609;SDS011;10463;52.378;9.688;2022-09-12T07:41:11;10.47;;;8.67;;
20609;SDS011;10463;52.378;9.688;2022-09-12T07:43:58;8.30;;;7.20;;
20609;SDS011;10463;52.378;9.688;2022-09-12T07:46:43;9.80;;;6.83;;
20609;SDS011;10463;52.378;9.688;2022-09-12T07:49:28;9.83;;;7.20;;
20609;SDS011;10463;52.378;9.688;2022-09-12T07:52:15;7.90;;;6.20;;
20609;SDS011;10463;52.378;9.688;2022-09-12T07:54:59;8.30;;;6.93;;
20609;SDS011;10463;52.378;9.688;2022-09-12T07:57:44;10.50;;;7.23;;
20609;SDS011;10463;52.378;9.688;2022-09-12T08:00:33;9.90;;;6.70;;
20609;SDS011;10463;52.378;9.688;2022-09-12T08:03:19;10.57;;;7.47;;
20609;SDS011;10463;52.378;9.688;2022-09-12T08:06:05;9.97;;;7.43;;
20609;SDS011;10463;52.378;9.688;2022-09-12T08:08:53;9.00;;;6.60;;
20609;SDS011;10463;52.378;9.688;2022-09-12T08:11:39;9.70;;;6.27;;
20609;SDS011;10463;52.378;9.688;2022-09-12T08:14:24;8.07;;;6.47;;
20609;SDS011;10463;52.378;9.688;2022-09-12T08:17:09;6.40;;;5.70;;
20609;SDS011;10463;52.378;9.688;2022-09-12T08:19:54;9.10;;;5.90;;
20609;SDS011;10463;52.378;9.688;2022-09-12T08:22:40;6.83;;;6.13;;
20609;SDS011;10463;52.378;9.688;2022-09-12T08:25:27;6.70;;;5.13;;
20609;SDS011;10463;52.378;9.688;2022-09-12T08:28:12;8.40;;;6.10;;
20609;SDS011;10463;52.378;9.688;2022-09-12T08:30:59;6.20;;;5.10;;
20609;SDS011;10463;52.378;9.688;2022-09-12T08:33:44;4.37;;;3.93;;
20609;SDS011;10463;52.378;9.688;2022-09-12T08:36:29;5.90;;;4.10;;
20609;SDS011;10463;52.378;9.688;2022-09-12T08:39:15;4.67;;;4.20;;
20609;SDS011;10463;52.378;9.688;2022-09-12T08:42:03;4.87;;;4.07;;
20609;SDS011;10463;52.378;9.688;2022-09-12T08:44:59;8.20;;;5.10;;
20609;SDS011;10463;52.378;9.688;2022-09-12T08:48:01;4.40;;;3.80;;
20609;SDS011;10463;52.378;9.688;2022-09-12T08:50:47;7.40;;;4.07;;
20609;SDS011;10463;52.378;9.688;2022-09-12T08:53:32;5.03;;;3.60;;
20609;SDS011;10463;52.378;9.688;2022-09-12T08:56:20;5.00;;;4.10;;
20609;SDS011;10463;52.378;9.688;2022-09-12T08:59:08;4.60;;;3.93;;
20609;SDS011;10463;52.378;9.688;2022-09-12T09:01:54;4.00;;;3.60;;
20609;SDS011;10463;52.378;9.688;2022-09-12T09:04:44;4.80;;;4.30;;
20609;SDS011;10463;52.378;9.688;2022-09-12T09:07:42;5.57;;;4.00;;
20609;SDS011;10463;52.378;9.688;2022-09-12T09:10:47;5.17;;;3.60;;
20609;SDS011;10463;52.378;9.688;2022-09-12T09:13:42;4.03;;;3.37;;
20609;SDS011;10463;52.378;9.688;2022-09-12T09:16:56;4.33;;;3.53;;
20609;SDS011;10463;52.378;9.688;2022-09-12T09:19:44;3.73;;;3.30;;
20609;SDS011;10463;52.378;9.688;2022-09-12T09:22:39;4.37;;;3.53;;
20609;SDS011;10463;52.378;9.688;2022-09-12T09:25:36;4.17;;;3.77;;
20609;SDS011;10463;52.378;9.688;2022-09-12T09:28:29;4.10;;;3.33;;
20609;SDS011;10463;52.378;9.688;2022-09-12T09:31:22;4.77;;;4.00;;
20609;SDS011;10463;52.378;9.688;2022-09-12T09:34:12;4.20;;;3.73;;
20609;SDS011;10463;52.378;9.688;2022-09-12T09:37:05;4.30;;;3.90;;
20609;SDS011;10463;52.378;9.688;2022-09-12T09:40:00;4.60;;;3.87;;
20609;SDS011;10463;52.378;9.688;2022-09-12T09:42:57;4.57;;;3.63;;
20609;SDS011;10463;52.378;9.688;2022-09-12T09:45:49;4.57;;;3.47;;
20609;SDS011;10463;52.378;9.688;2022-09-12T09:48:35;4.73;;;3.50;;
20609;SDS011;10463;52.378;9.688;2022-09-12T09:51:26;4.80;;;3.53;;
20609;SDS011;10463;52.378;9.688;2022-09-12T09:54:18;5.00;;;3.90;;
20609;SDS011;10463;52.378;9.688;2022-09-12T09:57:36;4.67;;;3.80;;
20609;SDS011;10463;52.378;9.688;2022-09-12T10:00:28;5.23;;;3.57;;
20609;SDS011;10463;52.378;9.688;2022-09-12T10:03:27;5.23;;;3.73;;
20609;SDS011;10463;52.378;9.688;2022-09-12T10:06:25;3.40;;;3.03;;
20609;SDS011;10463;52.378;9.688;2022-09-12T10:09:18;3.40;;;3.10;;
20609;SDS011;10463;52.378;9.688;2022-09-12T10:12:19;3.67;;;3.23;;
20609;SDS011;10463;52.378;9.688;2022-09-12T10:15:16;4.17;;;3.30;;
20609;SDS011;10463;52.378;9.688;2022-09-12T10:18:03;6.23;;;3.40;;
20609;SDS011;10463;52.378;9.688;2022-09-12T10:20:48;5.27;;;3.70;;
20609;SDS011;10463;52.378;9.688;2022-09-12T10:23:35;4.43;;;3.00;;
20609;SDS011;10463;52.378;9.688;2022-09-12T10:26:23;3.30;;;3.00;;
20609;SDS011;10463;52.378;9.688;2022-09-12T10:29:14;3.57;;;3.10;;
20609;SDS011;10463;52.378;9.688;2022-09-12T10:32:02;3.10;;;2.70;;
20609;SDS011;10463;52.378;9.688;2022-09-12T10:34:52;4.77;;;3.20;;
20609;SDS011;10463;52.378;9.688;2022-09-12T10:37:39;3.87;;;3.10;;
20609;SDS011;10463;52.378;9.688;2022-09-12T10:40:36;3.57;;;2.90;;
20609;SDS011;10463;52.378;9.688;2022-09-12T10:43:26;6.30;;;3.50;;
20609;SDS011;10463;52.378;9.688;2022-09-12T10:46:26;3.87;;;3.10;;
20609;SDS011;10463;52.378;9.688;2022-09-12T10:49:24;3.30;;;3.00;;
20609;SDS011;10463;52.378;9.688;2022-09-12T10:52:16;4.03;;;3.20;;
20609;SDS011;10463;52.378;9.688;2022-09-12T10:55:07;3.13;;;2.80;;
20609;SDS011;10463;52.378;9.688;2022-09-12T10:58:10;3.57;;;2.97;;
20609;SDS011;10463;52.378;9.688;2022-09-12T11:01:13;4.23;;;3.27;;
20609;SDS011;10463;52.378;9.688;2022-09-12T11:04:21;3.53;;;2.73;;
20609;SDS011;10463;52.378;9.688;2022-09-12T11:07:25;3.47;;;3.00;;
20609;SDS011;10463;52.378;9.688;2022-09-12T11:10:25;3.70;;;3.40;;
20609;SDS011;10463;52.378;9.688;2022-09-12T11:13:22;3.73;;;2.90;;
20609;SDS011;10463;52.378;9.688;2022-09-12T11:16:19;5.30;;;2.70;;
20609;SDS011;10463;52.378;9.688;2022-09-12T11:19:37;3.40;;;2.70;;
20609;SDS011;10463;52.378;9.688;2022-09-12T11:26:19;2.50;;;2.30;;
20609;SDS011;10463;52.378;9.688;2022-09-12T11:29:17;3.63;;;2.80;;
20609;SDS011;10463;52.378;9.688;2022-09-12T11:35:34;3.20;;;2.70;;
20609;SDS011;10463;52.378;9.688;2022-09-12T11:38:43;3.40;;;3.10;;
20609;SDS011;10463;52.378;9.688;2022-09-12T11:41:35;3.37;;;3.07;;
20609;SDS011;10463;52.378;9.688;2022-09-12T11:44:25;3.87;;;2.60;;
20609;SDS011;10463;52.378;9.688;2022-09-12T11:47:12;2.80;;;2.47;;
20609;SDS011;10463;52.378;9.688;2022-09-12T11:49:57;3.17;;;2.70;;
20609;SDS011;10463;52.378;9.688;2022-09-12T11:52:47;3.40;;;3.07;;
20609;SDS011;10463;52.378;9.688;2022-09-12T11:55:40;3.53;;;2.83;;
20609;SDS011;10463;52.378;9.688;2022-09-12T11:58:31;3.30;;;2.63;;
20609;SDS011;10463;52.378;9.688;2022-09-12T12:01:19;3.17;;;2.87;;
20609;SDS011;10463;52.378;9.688;2022-09-12T12:04:10;3.27;;;2.73;;
20609;SDS011;10463;52.378;9.688;2022-09-12T12:07:02;3.40;;;2.83;;
20609;SDS011;10463;52.378;9.688;2022-09-12T12:09:50;3.60;;;2.73;;
20609;SDS011;10463;52.378;9.688;2022-09-12T12:12:36;3.07;;;2.67;;
20609;SDS011;10463;52.378;9.688;2022-09-12T12:15:20;2.73;;;2.50;;
20609;SDS011;10463;52.378;9.688;2022-09-12T12:18:15;2.83;;;2.50;;
20609;SDS011;10463;52.378;9.688;2022-09-12T12:21:20;3.60;;;2.70;;
20609;SDS011;10463;52.378;9.688;2022-09-12T12:24:16;3.40;;;3.10;;
20609;SDS011;10463;52.378;9.688;2022-09-12T12:27:12;4.33;;;3.30;;
20609;SDS011;10463;52.378;9.688;2022-09-12T12:34:20;3.03;;;2.80;;
20609;SDS011;10463;52.378;9.688;2022-09-12T12:37:49;3.03;;;2.73;;
20609;SDS011;10463;52.378;9.688;2022-09-12T12:40:37;4.40;;;3.20;;
20609;SDS011;10463;52.378;9.688;2022-09-12T12:43:30;2.80;;;2.60;;
20609;SDS011;10463;52.378;9.688;2022-09-12T12:46:16;3.23;;;2.80;;
20609;SDS011;10463;52.378;9.688;2022-09-12T12:49:08;4.10;;;3.10;;
20609;SDS011;10463;52.378;9.688;2022-09-12T12:52:01;2.97;;;2.40;;
20609;SDS011;10463;52.378;9.688;2022-09-12T12:54:55;3.23;;;2.77;;
20609;SDS011;10463;52.378;9.688;2022-09-12T12:57:47;3.40;;;2.80;;
20609;SDS011;10463;52.378;9.688;2022-09-12T13:00:33;2.80;;;2.50;;
20609;SDS011;10463;52.378;9.688;2022-09-12T13:03:23;2.90;;;2.50;;
20609;SDS011;10463;52.378;9.688;2022-09-12T13:06:24;2.50;;;2.30;;
20609;SDS011;10463;52.378;9.688;2022-09-12T13:09:19;3.77;;;3.30;;
20609;SDS011;10463;52.378;9.688;2022-09-12T13:12:09;3.17;;;2.60;;
20609;SDS011;10463;52.378;9.688;2022-09-12T13:15:01;3.20;;;2.90;;
20609;SDS011;10463;52.378;9.688;2022-09-12T13:17:48;2.93;;;2.63;;
20609;SDS011;10463;52.378;9.688;2022-09-12T13:20:37;3.10;;;2.80;;
20609;SDS011;10463;52.378;9.688;2022-09-12T13:23:34;2.57;;;2.30;;
20609;SDS011;10463;52.378;9.688;2022-09-12T13:26:21;3.43;;;2.33;;
20609;SDS011;10463;52.378;9.688;2022-09-12T13:29:10;3.03;;;2.40;;
20609;SDS011;10463;52.378;9.688;2022-09-12T13:31:58;2.57;;;2.37;;
20609;SDS011;10463;52.378;9.688;2022-09-12T13:34:56;2.77;;;2.30;;
20609;SDS011;10463;52.378;9.688;2022-09-12T13:37:51;2.70;;;2.50;;
20609;SDS011;10463;52.378;9.688;2022-09-12T13:40:53;3.47;;;2.60;;
20609;SDS011;10463;52.378;9.688;2022-09-12T13:43:50;2.70;;;2.33;;
20609;SDS011;10463;52.378;9.688;2022-09-12T13:46:35;2.50;;;2.30;;
20609;SDS011;10463;52.378;9.688;2022-09-12T13:49:28;2.30;;;2.10;;
20609;SDS011;10463;52.378;9.688;2022-09-12T13:52:19;2.57;;;2.37;;
20609;SDS011;10463;52.378;9.688;2022-09-12T13:55:13;2.77;;;2.13;;
20609;SDS011;10463;52.378;9.688;2022-09-12T13:58:18;2.50;;;2.10;;
20609;SDS011;10463;52.378;9.688;2022-09-12T14:01:09;2.87;;;2.30;;
20609;SDS011;10463;52.378;9.688;2022-09-12T14:03:57;2.70;;;2.23;;
20609;SDS011;10463;52.378;9.688;2022-09-12T14:07:09;2.70;;;2.40;;
20609;SDS011;10463;52.378;9.688;2022-09-12T14:09:57;2.60;;;2.03;;
20609;SDS011;10463;52.378;9.688;2022-09-12T14:12:43;2.97;;;2.13;;
20609;SDS011;10463;52.378;9.688;2022-09-12T14:15:35;2.20;;;2.00;;
20609;SDS011;10463;52.378;9.688;2022-09-12T14:18:22;2.80;;;2.30;;
20609;SDS011;10463;52.378;9.688;2022-09-12T14:21:10;2.63;;;2.20;;
20609;SDS011;10463;52.378;9.688;2022-09-12T14:24:04;3.37;;;2.40;;
20609;SDS011;10463;52.378;9.688;2022-09-12T14:26:52;3.50;;;2.70;;
20609;SDS011;10463;52.378;9.688;2022-09-12T14:29:40;2.20;;;2.00;;
20609;SDS011;10463;52.378;9.688;2022-09-12T14:32:28;2.93;;;2.30;;
20609;SDS011;10463;52.378;9.688;2022-09-12T14:35:18;3.43;;;2.83;;
20609;SDS011;10463;52.378;9.688;2022-09-12T14:38:06;2.90;;;2.40;;
20609;SDS011;10463;52.378;9.688;2022-09-12T14:40:58;4.00;;;2.50;;
20609;SDS011;10463;52.378;9.688;2022-09-12T14:43:45;5.13;;;3.40;;
20609;SDS011;10463;52.378;9.688;2022-09-12T14:46:35;3.17;;;2.60;;
20609;SDS011;10463;52.378;9.688;2022-09-12T14:49:31;3.07;;;2.77;;
20609;SDS011;10463;52.378;9.688;2022-09-12T14:52:23;3.40;;;2.50;;
20609;SDS011;10463;52.378;9.688;2022-09-12T14:55:22;3.20;;;2.17;;
20609;SDS011;10463;52.378;9.688;2022-09-12T14:58:22;2.90;;;2.40;;
20609;SDS011;10463;52.378;9.688;2022-09-12T15:01:23;2.73;;;2.43;;
20609;SDS011;10463;52.378;9.688;2022-09-12T15:04:09;2.73;;;2.40;;
20609;SDS011;10463;52.378;9.688;2022-09-12T15:06:55;3.53;;;2.40;;
20609;SDS011;10463;52.378;9.688;2022-09-12T15:09:40;2.93;;;2.50;;
20609;SDS011;10463;52.378;9.688;2022-09-12T15:12:25;3.87;;;2.87;;
20609;SDS011;10463;52.378;9.688;2022-09-12T15:15:13;3.37;;;2.67;;
20609;SDS011;10463;52.378;9.688;2022-09-12T15:18:00;3.80;;;2.50;;
20609;SDS011;10463;52.378;9.688;2022-09-12T15:20:46;3.43;;;2.70;;
20609;SDS011;10463;52.378;9.688;2022-09-12T15:23:35;2.70;;;2.23;;
20609;SDS011;10463;52.378;9.688;2022-09-12T15:26:24;2.27;;;2.07;;
20609;SDS011;10463;52.378;9.688;2022-09-12T15:29:13;2.80;;;2.50;;
20609;SDS011;10463;52.378;9.688;2022-09-12T15:31:58;2.93;;;2.57;;
20609;SDS011;10463;52.378;9.688;2022-09-12T15:34:43;2.70;;;2.03;;
20609;SDS011;10463;52.378;9.688;2022-09-12T15:37:28;2.50;;;2.30;;
20609;SDS011;10463;52.378;9.688;2022-09-12T15:40:15;3.80;;;3.20;;
20609;SDS011;10463;52.378;9.688;2022-09-12T15:43:00;2.60;;;2.40;;
20609;SDS011;10463;52.378;9.688;2022-09-12T15:45:46;4.10;;;2.73;;
20609;SDS011;10463;52.378;9.688;2022-09-12T15:48:33;2.90;;;2.60;;
20609;SDS011;10463;52.378;9.688;2022-09-12T15:51:19;3.07;;;2.70;;
20609;SDS011;10463;52.378;9.688;2022-09-12T15:54:04;2.47;;;2.20;;
20609;SDS011;10463;52.378;9.688;2022-09-12T15:56:50;3.23;;;2.27;;
20609;SDS011;10463;52.378;9.688;2022-09-12T15:59:36;3.53;;;2.87;;
20609;SDS011;10463;52.378;9.688;2022-09-12T16:02:20;2.53;;;2.20;;
20609;SDS011;10463;52.378;9.688;2022-09-12T16:05:05;2.53;;;2.30;;
20609;SDS011;10463;52.378;9.688;2022-09-12T16:07:56;2.60;;;2.40;;
20609;SDS011;10463;52.378;9.688;2022-09-12T16:10:41;3.20;;;2.30;;
20609;SDS011;10463;52.378;9.688;2022-09-12T16:13:28;2.70;;;2.20;;
20609;SDS011;10463;52.378;9.688;2022-09-12T16:16:12;2.60;;;2.40;;
20609;SDS011;10463;52.378;9.688;2022-09-12T16:18:57;2.70;;;2.37;;
20609;SDS011;10463;52.378;9.688;2022-09-12T16:21:42;3.43;;;2.90;;
20609;SDS011;10463;52.378;9.688;2022-09-12T16:24:27;3.17;;;2.70;;
20609;SDS011;10463;52.378;9.688;2022-09-12T16:27:12;3.77;;;2.53;;
20609;SDS011;10463;52.378;9.688;2022-09-12T16:29:59;3.30;;;2.57;;
20609;SDS011;10463;52.378;9.688;2022-09-12T16:32:43;2.63;;;2.43;;
20609;SDS011;10463;52.378;9.688;2022-09-12T16:35:30;3.97;;;3.00;;
20609;SDS011;10463;52.378;9.688;2022-09-12T16:38:16;2.50;;;2.27;;
20609;SDS011;10463;52.378;9.688;2022-09-12T16:41:01;2.63;;;2.30;;
20609;SDS011;10463;52.378;9.688;2022-09-12T16:43:47;3.23;;;2.37;;
20609;SDS011;10463;52.378;9.688;2022-09-12T16:46:33;4.23;;;2.30;;
20609;SDS011;10463;52.378;9.688;2022-09-12T16:49:18;3.50;;;2.47;;
20609;SDS011;10463;52.378;9.688;2022-09-12T16:52:02;3.13;;;2.50;;
20609;SDS011;10463;52.378;9.688;2022-09-12T16:54:48;2.90;;;2.60;;
20609;SDS011;10463;52.378;9.688;2022-09-12T16:57:33;3.37;;;2.70;;
20609;SDS011;10463;52.378;9.688;2022-09-12T17:00:18;2.93;;;2.63;;
20609;SDS011;10463;52.378;9.688;2022-09-12T17:03:04;2.77;;;2.40;;
20609;SDS011;10463;52.378;9.688;2022-09-12T17:05:56;2.70;;;2.30;;
20609;SDS011;10463;52.378;9.688;2022-09-12T17:08:44;4.20;;;3.10;;
20609;SDS011;10463;52.378;9.688;2022-09-12T17:11:31;3.40;;;3.00;;
20609;SDS011;10463;52.378;9.688;2022-09-12T17:14:17;5.07;;;3.00;;
20609;SDS011;10463;52.378;9.688;2022-09-12T17:17:01;3.27;;;2.43;;
20609;SDS011;10463;52.378;9.688;2022-09-12T17:19:47;3.33;;;2.90;;